This is the latest recevied weather packets stored in our database for station/object DG4DAA-13. If no packets are shown the sender has not sent any weather packets the latest 10 day(s).
| Time | Temp. | Humidity | Pressure | Rain* | Wind** | Luminosity | Snow |
|---|---|---|---|---|---|---|---|
| 1778186294 | 8.33° C | 88% | 1020 hPa | 0 mm | - | - | - |
| 1778184494 | 8.89° C | 87% | 1019.8 hPa | 0 mm | - | - | - |
| 1778182694 | 9.44° C | 86% | 1019.8 hPa | 0 mm | - | - | - |
| 1778180894 | 10° C | 85% | 1019.8 hPa | 0 mm | - | - | - |
| 1778179094 | 10° C | 82% | 1019.6 hPa | 0 mm | - | - | - |
| 1778177294 | 11.67° C | 78% | 1019.5 hPa | 0 mm | - | - | - |
| 1778175494 | 11.11° C | 78% | 1019.4 hPa | 0 mm | - | - | - |
| 1778173694 | 11.67° C | 79% | 1019.3 hPa | 0 mm | - | - | - |
| 1778171894 | 11.67° C | 78% | 1019.2 hPa | 0 mm | - | - | - |
| 1778170094 | 11.67° C | 76% | 1019 hPa | 0 mm | - | - | - |
| 1778168294 | 11.67° C | 75% | 1018.9 hPa | 0 mm | - | - | - |
| 1778166494 | 12.22° C | 75% | 1018.8 hPa | 0 mm | - | - | - |
| 1778164694 | 11.67° C | 78% | 1018.7 hPa | 0 mm | - | - | - |
| 1778162894 | 12.22° C | 76% | 1018.7 hPa | 0 mm | - | - | - |
| 1778161094 | 12.78° C | 73% | 1018.6 hPa | 0 mm | - | - | - |
| 1778159295 | 11.11° C | 77% | 1018.5 hPa | 0 mm | - | - | - |
| 1778157497 | 11.11° C | 79% | 1018.4 hPa | 0 mm | - | - | - |
| 1778155695 | 10.56° C | 81% | 1018.1 hPa | 0 mm | - | - | - |
| 1778153940 | 10.56° C | 81% | 1018.1 hPa | 0 mm | - | - | - |
| 1778153895 | 10.56° C | 81% | 1018.1 hPa | 0 mm | - | - | - |
| 1778152095 | 10.56° C | 81% | 1018 hPa | 0 mm | - | - | - |
| 1778150295 | 10° C | 82% | 1018 hPa | 0 mm | - | - | - |
| 1778148495 | 9.44° C | 85% | 1017.8 hPa | 0 mm | - | - | - |
| 1778146695 | 9.44° C | 84% | 1017.6 hPa | 0 mm | - | - | - |
| 1778144895 | 8.89° C | 88% | 1017.1 hPa | 0 mm | - | - | - |
* Rain latest hour (hover to see other rain measurements)
** Current wind speed in m/s (hover to see current wind gust speed)